createdAt,value
2019-06-01T00:01:00.587Z,12.10
2019-06-01T00:03:28.854Z,12.00
2019-06-01T00:05:57.176Z,12.00
2019-06-01T00:08:25.437Z,12.00
2019-06-01T00:10:53.721Z,11.90
2019-06-01T00:13:21.983Z,14.60
2019-06-01T00:15:50.457Z,11.90
2019-06-01T00:18:18.821Z,11.90
2019-06-01T00:20:47.095Z,11.80
2019-06-01T00:23:15.383Z,11.80
2019-06-01T00:25:44.611Z,11.80
2019-06-01T00:28:12.985Z,11.80
2019-06-01T00:30:41.634Z,11.70
2019-06-01T00:33:10.001Z,11.80
2019-06-01T00:35:38.267Z,11.80
2019-06-01T00:38:06.542Z,11.80
2019-06-01T00:40:34.839Z,11.70
2019-06-01T00:43:03.080Z,11.70
2019-06-01T00:45:31.409Z,11.60
2019-06-01T00:47:59.742Z,11.60
2019-06-01T00:50:28.103Z,11.60
2019-06-01T00:52:56.356Z,11.60
2019-06-01T00:55:24.653Z,11.60
2019-06-01T00:57:53.975Z,11.60
2019-06-01T01:00:22.380Z,11.50
2019-06-01T01:02:50.649Z,11.50
2019-06-01T01:05:19.172Z,11.50
2019-06-01T01:07:48.698Z,11.50
2019-06-01T01:10:17.168Z,11.50
2019-06-01T01:13:03.487Z,11.50
2019-06-01T01:15:31.937Z,11.50
2019-06-01T01:18:00.226Z,11.50
2019-06-01T01:20:28.494Z,11.40
2019-06-01T01:22:56.821Z,11.40
2019-06-01T01:25:25.104Z,11.40
2019-06-01T01:27:53.455Z,11.30
2019-06-01T01:30:21.708Z,11.30
2019-06-01T01:32:51.606Z,11.30
2019-06-01T01:35:20.014Z,11.20
2019-06-01T01:37:48.367Z,11.20
2019-06-01T01:40:16.630Z,11.10
2019-06-01T01:42:44.917Z,11.10
2019-06-01T01:45:13.252Z,11.10
2019-06-01T01:47:41.552Z,11.00
2019-06-01T01:50:09.801Z,11.00
2019-06-01T01:52:38.083Z,10.90
2019-06-01T01:55:06.892Z,10.90
2019-06-01T01:57:35.601Z,10.90
2019-06-01T02:00:06.201Z,10.90
2019-06-01T02:02:34.497Z,10.90
2019-06-01T02:05:02.820Z,10.90
2019-06-01T02:07:31.125Z,10.80
2019-06-01T02:09:59.469Z,10.80
2019-06-01T02:12:27.753Z,10.80
2019-06-01T02:14:56.029Z,10.80
2019-06-01T02:17:24.356Z,10.70
2019-06-01T02:19:52.659Z,10.70
2019-06-01T02:22:20.981Z,10.70
2019-06-01T02:24:49.265Z,10.70
2019-06-01T02:27:17.592Z,10.70
2019-06-01T02:29:45.886Z,10.60
2019-06-01T02:32:14.214Z,10.60
2019-06-01T02:34:42.502Z,10.60
2019-06-01T02:37:10.777Z,10.60
2019-06-01T02:39:39.067Z,10.50
2019-06-01T02:42:09.001Z,10.50
2019-06-01T02:44:37.317Z,10.40
2019-06-01T02:47:06.355Z,10.40
2019-06-01T02:49:34.842Z,10.30
2019-06-01T02:52:03.523Z,10.30
2019-06-01T02:54:31.891Z,10.30
2019-06-01T02:57:00.247Z,10.20
2019-06-01T02:59:28.543Z,10.20
2019-06-01T03:02:01.387Z,10.20
2019-06-01T03:04:26.892Z,10.20
2019-06-01T03:06:55.143Z,10.20
2019-06-01T03:09:23.809Z,10.10
2019-06-01T03:11:53.487Z,10.10
2019-06-01T03:14:22.536Z,10.20
2019-06-01T03:16:52.037Z,10.10
2019-06-01T03:19:20.983Z,10.10
2019-06-01T03:21:49.837Z,10.10
2019-06-01T03:24:19.782Z,10.10
2019-06-01T03:26:48.051Z,10.10
2019-06-01T03:29:18.383Z,10.10
2019-06-01T03:31:46.646Z,10.10
2019-06-01T03:34:14.936Z,10.10
2019-06-01T03:36:43.741Z,10.10
2019-06-01T03:39:13.049Z,10.00
2019-06-01T03:41:41.625Z,10.00
2019-06-01T03:44:09.874Z,10.00
2019-06-01T03:46:38.141Z,10.00
2019-06-01T03:49:07.610Z,10.10
2019-06-01T03:51:36.073Z,10.00
2019-06-01T03:54:05.064Z,10.10
2019-06-01T03:56:34.384Z,10.10
2019-06-01T03:59:03.059Z,10.10
2019-06-01T04:01:31.397Z,10.20
2019-06-01T04:04:00.890Z,10.20
2019-06-01T04:06:29.238Z,10.30
2019-06-01T04:08:57.494Z,10.30
2019-06-01T04:11:25.796Z,10.30
2019-06-01T04:13:54.047Z,10.40
2019-06-01T04:16:22.339Z,10.40
2019-06-01T04:18:50.612Z,10.50
2019-06-01T04:21:18.892Z,10.50
2019-06-01T04:23:47.155Z,10.50
2019-06-01T04:26:15.442Z,10.60
2019-06-01T04:28:43.710Z,10.50
2019-06-01T04:31:12.856Z,10.60
2019-06-01T04:33:41.222Z,10.60
2019-06-01T04:36:09.500Z,10.70
2019-06-01T04:38:37.754Z,10.70
2019-06-01T04:41:06.041Z,10.80
2019-06-01T04:43:34.282Z,10.90
2019-06-01T04:46:02.569Z,11.00
2019-06-01T04:48:30.837Z,11.00
2019-06-01T04:50:59.173Z,11.10
2019-06-01T04:53:27.476Z,11.20
2019-06-01T04:55:55.813Z,11.30
2019-06-01T04:58:24.187Z,11.50
2019-06-01T05:00:52.488Z,11.60
2019-06-01T05:03:20.775Z,11.70
2019-06-01T05:05:49.028Z,11.80
2019-06-01T05:08:17.318Z,12.00
2019-06-01T05:10:45.711Z,12.10
2019-06-01T05:13:14.065Z,12.20
2019-06-01T05:15:42.317Z,12.30
2019-06-01T05:18:10.608Z,12.40
2019-06-01T05:20:38.883Z,12.50
2019-06-01T05:23:08.452Z,12.60
2019-06-01T05:25:36.789Z,12.70
2019-06-01T05:28:05.101Z,12.70
2019-06-01T05:30:33.345Z,12.80
2019-06-01T05:33:01.646Z,12.90
2019-06-01T05:35:29.931Z,12.90
2019-06-01T05:37:58.301Z,13.00
2019-06-01T05:40:26.691Z,13.00
2019-06-01T05:42:54.986Z,13.10
2019-06-01T05:45:23.290Z,13.20
2019-06-01T05:47:51.644Z,13.30
2019-06-01T05:50:19.916Z,13.30
2019-06-01T05:52:48.175Z,13.40
2019-06-01T05:55:16.801Z,13.50
2019-06-01T05:57:45.046Z,13.70
2019-06-01T06:00:13.345Z,13.80
2019-06-01T06:02:41.608Z,13.80
2019-06-01T06:05:10.648Z,13.80
2019-06-01T06:07:39.032Z,13.90
2019-06-01T06:10:07.713Z,14.00
2019-06-01T06:12:35.977Z,14.20
2019-06-01T06:15:07.493Z,14.20
2019-06-01T06:17:35.754Z,14.30
2019-06-01T06:20:05.585Z,14.30
2019-06-01T06:22:34.028Z,14.40
2019-06-01T06:25:02.313Z,14.40
2019-06-01T06:27:30.630Z,14.40
2019-06-01T06:29:58.922Z,14.50
2019-06-01T06:32:27.171Z,14.50
2019-06-01T06:34:55.445Z,14.60
2019-06-01T06:37:23.948Z,14.60
2019-06-01T06:39:52.269Z,14.70
2019-06-01T06:42:20.545Z,14.70
2019-06-01T06:44:48.797Z,14.80
2019-06-01T06:47:17.110Z,14.90
2019-06-01T06:49:45.454Z,14.90
2019-06-01T06:52:13.757Z,15.00
2019-06-01T06:54:42.067Z,15.10
2019-06-01T06:57:10.352Z,15.20
2019-06-01T06:59:38.669Z,15.20
2019-06-01T07:02:06.977Z,15.30
2019-06-01T07:04:35.354Z,15.50
2019-06-01T07:07:03.626Z,15.60
2019-06-01T07:09:31.890Z,15.70
2019-06-01T07:12:00.197Z,15.90
2019-06-01T07:14:28.538Z,15.90
2019-06-01T07:16:56.897Z,16.00
2019-06-01T07:19:25.750Z,16.10
2019-06-01T07:21:54.103Z,16.20
2019-06-01T07:24:23.780Z,16.30
2019-06-01T07:26:52.202Z,16.40
2019-06-01T07:29:20.472Z,16.50
2019-06-01T07:31:48.808Z,14.10
2019-06-01T07:34:32.136Z,16.80
2019-06-01T07:36:47.104Z,16.80
2019-06-01T07:39:15.453Z,17.00
2019-06-01T07:41:43.798Z,17.20
2019-06-01T07:44:12.106Z,17.30
2019-06-01T07:46:40.412Z,17.40
2019-06-01T07:49:08.698Z,17.60
2019-06-01T07:51:37.046Z,17.80
2019-06-01T07:54:05.316Z,18.00
2019-06-01T07:56:33.625Z,19.80
2019-06-01T07:59:01.918Z,18.40
2019-06-01T08:01:31.545Z,18.50
2019-06-01T08:04:00.196Z,18.60
2019-06-01T08:06:30.232Z,18.70
2019-06-01T08:08:58.486Z,18.90
2019-06-01T08:11:30.086Z,18.90
2019-06-01T08:13:56.855Z,19.10
2019-06-01T08:16:25.941Z,19.20
2019-06-01T08:18:54.251Z,19.30
2019-06-01T08:21:23.888Z,19.40
2019-06-01T08:23:52.358Z,19.40
2019-06-01T08:26:20.696Z,19.60
2019-06-01T08:28:48.998Z,19.70
2019-06-01T08:31:17.244Z,19.80
2019-06-01T08:33:45.563Z,19.90
2019-06-01T08:36:13.868Z,20.00
2019-06-01T08:38:42.147Z,20.10
2019-06-01T08:41:10.401Z,20.10
2019-06-01T08:43:38.716Z,20.10
2019-06-01T08:46:07.026Z,21.00
2019-06-01T08:48:35.391Z,20.30
2019-06-01T08:51:03.671Z,20.40
2019-06-01T08:53:32.230Z,20.50
2019-06-01T08:56:00.582Z,20.50
2019-06-01T08:58:28.903Z,20.50
2019-06-01T09:00:57.233Z,20.50
2019-06-01T09:03:25.877Z,20.50
2019-06-01T09:05:54.258Z,20.60
2019-06-01T09:08:23.937Z,20.80
2019-06-01T09:10:52.550Z,21.10
2019-06-01T09:13:20.905Z,20.50
2019-06-01T09:15:49.342Z,21.10
2019-06-01T09:18:17.677Z,21.20
2019-06-01T09:20:46.046Z,21.20
2019-06-01T09:23:14.345Z,21.30
2019-06-01T09:25:42.632Z,21.60
2019-06-01T09:28:10.912Z,21.70
2019-06-01T09:30:39.196Z,21.80
2019-06-01T09:33:07.472Z,21.90
2019-06-01T09:35:52.717Z,22.00
2019-06-01T09:38:05.802Z,22.20
2019-06-01T09:40:35.090Z,22.20
2019-06-01T09:43:03.470Z,22.30
2019-06-01T09:45:33.048Z,22.40
2019-06-01T09:48:01.745Z,22.60
2019-06-01T09:50:31.280Z,22.60
2019-06-01T09:52:59.628Z,22.80
2019-06-01T09:55:29.429Z,23.00
2019-06-01T09:57:57.942Z,23.40
2019-06-01T10:00:26.230Z,23.60
2019-06-01T10:02:54.520Z,24.10
2019-06-01T10:05:22.783Z,24.40
2019-06-01T10:07:51.152Z,24.50
2019-06-01T10:10:19.482Z,24.70
2019-06-01T10:12:47.791Z,24.80
2019-06-01T10:15:16.076Z,24.70
2019-06-01T10:17:44.418Z,24.80
2019-06-01T10:20:13.266Z,24.60
2019-06-01T10:22:41.692Z,24.50
2019-06-01T10:25:10.026Z,24.90
2019-06-01T10:27:38.660Z,25.20
2019-06-01T10:30:09.830Z,25.20
2019-06-01T10:32:38.240Z,25.40
2019-06-01T10:35:06.812Z,25.60
2019-06-01T10:37:35.396Z,25.80
2019-06-01T10:40:05.631Z,25.90
2019-06-01T10:42:34.408Z,26.10
2019-06-01T10:45:04.704Z,26.30
2019-06-01T10:47:33.757Z,26.40
2019-06-01T10:50:02.126Z,26.70
2019-06-01T10:52:30.441Z,26.90
2019-06-01T10:54:58.780Z,27.30
2019-06-01T10:57:27.132Z,27.50
2019-06-01T10:59:55.406Z,27.30
2019-06-01T11:02:23.707Z,27.20
2019-06-01T11:04:51.978Z,27.50
2019-06-01T11:07:20.270Z,27.60
2019-06-01T11:09:48.535Z,27.70
2019-06-01T11:12:16.871Z,27.90
2019-06-01T11:14:45.406Z,27.90
2019-06-01T11:17:13.705Z,28.10
2019-06-01T11:19:42.448Z,28.50
2019-06-01T11:22:11.960Z,28.70
2019-06-01T11:24:41.347Z,28.70
2019-06-01T11:27:09.847Z,29.10
2019-06-01T11:29:46.201Z,29.20
2019-06-01T11:32:08.140Z,29.20
2019-06-01T11:34:36.628Z,29.30
2019-06-01T11:37:08.521Z,29.50
2019-06-01T11:39:36.809Z,29.70
2019-06-01T11:42:05.086Z,29.60
2019-06-01T11:44:34.632Z,29.70
2019-06-01T11:47:03.060Z,30.00
2019-06-01T11:49:31.418Z,30.10
2019-06-01T11:51:59.667Z,30.30
2019-06-01T11:54:27.998Z,30.90
2019-06-01T11:56:56.258Z,31.00
2019-06-01T11:59:24.575Z,31.30
2019-06-01T12:01:52.908Z,31.40
2019-06-01T12:04:21.238Z,31.30
2019-06-01T12:06:49.536Z,31.40
2019-06-01T12:09:17.966Z,31.50
2019-06-01T12:11:46.481Z,31.30
2019-06-01T12:14:14.868Z,31.60
2019-06-01T12:16:44.597Z,32.00
2019-06-01T12:19:13.178Z,32.10
2019-06-01T12:21:42.937Z,32.50
2019-06-01T12:24:11.459Z,32.50
2019-06-01T12:26:39.782Z,32.70
2019-06-01T12:29:08.047Z,32.40
2019-06-01T12:31:37.574Z,33.00
2019-06-01T12:34:05.996Z,33.10
2019-06-01T12:36:34.354Z,33.10
2019-06-01T12:39:02.631Z,33.40
2019-06-01T12:41:30.987Z,33.60
2019-06-01T12:44:09.723Z,33.30
2019-06-01T12:46:41.781Z,33.40
2019-06-01T12:49:10.108Z,33.60
2019-06-01T12:51:38.392Z,33.70
2019-06-01T12:54:06.831Z,33.50
2019-06-01T12:56:35.183Z,33.70
2019-06-01T12:59:03.503Z,33.90
2019-06-01T13:01:31.921Z,34.20
2019-06-01T13:04:00.253Z,33.80
2019-06-01T13:06:28.552Z,33.90
2019-06-01T13:08:56.831Z,34.10
2019-06-01T13:11:25.146Z,34.20
2019-06-01T13:13:53.416Z,34.60
2019-06-01T13:16:21.750Z,35.00
2019-06-01T13:18:51.450Z,34.50
2019-06-01T13:21:20.057Z,34.40
2019-06-01T13:23:49.569Z,34.60
2019-06-01T13:26:17.982Z,34.50
2019-06-01T13:28:46.311Z,34.80
2019-06-01T13:31:14.555Z,35.30
2019-06-01T13:33:44.076Z,34.60
2019-06-01T13:36:12.612Z,34.60
2019-06-01T13:38:40.930Z,35.00
2019-06-01T13:41:09.215Z,35.50
2019-06-01T13:43:37.510Z,35.80
2019-06-01T13:46:06.651Z,36.00
2019-06-01T13:48:35.115Z,35.80
2019-06-01T13:51:03.362Z,36.40
2019-06-01T13:53:31.742Z,36.60
2019-06-01T13:56:00.006Z,36.30
2019-06-01T13:58:28.296Z,36.40
2019-06-01T14:00:56.552Z,36.70
2019-06-01T14:03:24.850Z,37.10
2019-06-01T14:05:53.143Z,37.20
2019-06-01T14:08:28.888Z,36.30
2019-06-01T14:10:51.415Z,36.80
2019-06-01T14:13:19.712Z,36.90
2019-06-01T14:15:47.966Z,37.50
2019-06-01T14:18:16.289Z,37.20
2019-06-01T14:20:45.558Z,37.90
2019-06-01T14:23:13.976Z,38.00
2019-06-01T14:25:42.251Z,37.70
2019-06-01T14:28:10.587Z,37.80
2019-06-01T14:30:38.937Z,37.40
2019-06-01T14:33:07.190Z,37.80
2019-06-01T14:35:36.000Z,37.70
2019-06-01T14:38:04.453Z,37.80
2019-06-01T14:40:32.912Z,38.00
2019-06-01T14:43:01.186Z,37.90
2019-06-01T14:45:29.476Z,38.30
2019-06-01T14:47:57.770Z,38.20
2019-06-01T14:50:26.126Z,38.20
2019-06-01T14:52:55.648Z,38.50
2019-06-01T14:55:24.034Z,38.70
2019-06-01T14:57:52.485Z,38.20
2019-06-01T15:00:20.947Z,37.40
2019-06-01T15:02:50.017Z,37.00
2019-06-01T15:05:18.392Z,37.80
2019-06-01T15:07:46.662Z,37.90
2019-06-01T15:10:15.089Z,37.70
2019-06-01T15:12:43.381Z,38.20
2019-06-01T15:15:11.727Z,38.60
2019-06-01T15:17:39.978Z,38.50
2019-06-01T15:20:08.522Z,39.00
2019-06-01T15:22:36.781Z,39.00
2019-06-01T15:25:06.633Z,38.80
2019-06-01T15:27:34.914Z,38.70
2019-06-01T15:30:05.172Z,38.40
2019-06-01T15:32:33.479Z,37.90
2019-06-01T15:35:03.284Z,38.00
2019-06-01T15:37:31.743Z,37.90
2019-06-01T15:40:00.162Z,38.20
2019-06-01T15:42:28.466Z,38.20
2019-06-01T15:44:57.248Z,38.00
2019-06-01T15:47:25.605Z,38.30
2019-06-01T15:49:53.897Z,38.30
2019-06-01T15:52:22.206Z,38.00
2019-06-01T15:54:50.463Z,37.60
2019-06-01T15:57:18.771Z,36.80
2019-06-01T15:59:47.062Z,36.00
2019-06-01T16:02:15.425Z,35.20
2019-06-01T16:04:43.752Z,34.70
2019-06-01T16:07:12.059Z,33.90
2019-06-01T16:09:43.194Z,33.10
2019-06-01T16:12:10.300Z,32.70
2019-06-01T16:14:38.565Z,32.30
2019-06-01T16:17:06.855Z,32.10
2019-06-01T16:19:35.128Z,31.50
2019-06-01T16:22:03.464Z,31.00
2019-06-01T16:24:31.761Z,30.80
2019-06-01T16:27:00.369Z,30.60
2019-06-01T16:29:28.708Z,30.50
2019-06-01T16:31:56.998Z,30.20
2019-06-01T16:34:25.326Z,30.10
2019-06-01T16:36:54.829Z,30.40
2019-06-01T16:39:23.221Z,30.80
2019-06-01T16:41:51.577Z,30.60
2019-06-01T16:44:20.092Z,30.30
2019-06-01T16:46:48.399Z,30.10
2019-06-01T16:49:16.750Z,29.90
2019-06-01T16:51:52.940Z,29.80
2019-06-01T16:54:21.246Z,29.60
2019-06-01T16:56:49.547Z,29.30
2019-06-01T16:59:17.861Z,29.00
2019-06-01T17:01:46.136Z,28.80
2019-06-01T17:04:14.428Z,28.70
2019-06-01T17:06:42.777Z,28.50
2019-06-01T17:09:11.149Z,28.40
2019-06-01T17:11:39.431Z,28.30
2019-06-01T17:14:07.902Z,28.20
2019-06-01T17:16:36.298Z,28.20
2019-06-01T17:19:05.236Z,28.10
2019-06-01T17:21:33.615Z,28.00
2019-06-01T17:24:01.910Z,27.90
2019-06-01T17:26:30.197Z,27.80
2019-06-01T17:28:59.721Z,27.80
2019-06-01T17:31:28.327Z,27.60
2019-06-01T17:33:56.626Z,27.50
2019-06-01T17:36:24.956Z,27.30
2019-06-01T17:38:53.242Z,27.20
2019-06-01T17:41:21.511Z,27.00
2019-06-01T17:43:49.820Z,26.90
2019-06-01T17:46:18.165Z,26.80
2019-06-01T17:48:46.516Z,26.70
2019-06-01T17:51:14.778Z,26.50
2019-06-01T17:53:43.072Z,26.40
2019-06-01T17:56:12.192Z,26.40
2019-06-01T17:58:40.471Z,26.20
2019-06-01T18:01:09.937Z,26.20
2019-06-01T18:03:38.358Z,26.00
2019-06-01T18:06:07.774Z,25.90
2019-06-01T18:08:36.246Z,25.80
2019-06-01T18:11:04.551Z,25.70
2019-06-01T18:13:32.900Z,25.60
2019-06-01T18:16:03.093Z,25.60
2019-06-01T18:18:31.248Z,25.50
2019-06-01T18:20:59.563Z,25.30
2019-06-01T18:23:27.817Z,25.20
2019-06-01T18:25:56.106Z,25.10
2019-06-01T18:28:24.367Z,25.00
2019-06-01T18:30:52.705Z,24.90
2019-06-01T18:33:21.090Z,24.80
2019-06-01T18:35:49.367Z,24.70
2019-06-01T18:38:17.662Z,24.50
2019-06-01T18:40:46.031Z,24.40
2019-06-01T18:43:17.014Z,24.20
2019-06-01T18:45:47.236Z,24.10
2019-06-01T18:48:15.961Z,23.90
2019-06-01T18:50:44.693Z,23.70
2019-06-01T18:53:14.167Z,23.50
2019-06-01T18:55:42.577Z,23.30
2019-06-01T18:58:10.943Z,23.10
2019-06-01T19:00:40.225Z,22.90
2019-06-01T19:03:09.036Z,22.70
2019-06-01T19:05:37.374Z,22.50
2019-06-01T19:08:05.678Z,22.40
2019-06-01T19:10:33.961Z,22.20
2019-06-01T19:13:02.248Z,22.10
2019-06-01T19:15:30.541Z,21.90
2019-06-01T19:17:58.912Z,21.80
2019-06-01T19:20:27.167Z,21.60
2019-06-01T19:22:55.521Z,21.50
2019-06-01T19:25:25.386Z,21.30
2019-06-01T19:27:53.733Z,21.20
2019-06-01T19:30:33.781Z,21.00
2019-06-01T19:33:02.061Z,20.90
2019-06-01T19:35:30.326Z,20.80
2019-06-01T19:37:58.933Z,20.70
2019-06-01T19:40:33.319Z,20.60
2019-06-01T19:43:01.607Z,20.40
2019-06-01T19:45:29.887Z,20.40
2019-06-01T19:47:58.181Z,20.30
2019-06-01T19:50:26.477Z,20.10
2019-06-01T19:52:54.861Z,20.00
2019-06-01T19:55:23.122Z,20.00
2019-06-01T19:57:51.501Z,19.90
2019-06-01T20:00:19.780Z,19.80
2019-06-01T20:02:48.142Z,19.70
2019-06-01T20:05:16.731Z,19.60
2019-06-01T20:07:45.073Z,19.40
2019-06-01T20:10:14.419Z,19.40
2019-06-01T20:12:42.828Z,19.30
2019-06-01T20:15:11.313Z,19.30
2019-06-01T20:17:39.618Z,19.20
2019-06-01T20:20:10.737Z,19.10
2019-06-01T20:22:39.152Z,19.00
2019-06-01T20:25:07.459Z,18.90
2019-06-01T20:27:35.828Z,18.80
2019-06-01T20:30:08.678Z,18.70
2019-06-01T20:32:37.006Z,18.60
2019-06-01T20:35:05.743Z,18.50
2019-06-01T20:37:34.376Z,18.50
2019-06-01T20:40:02.915Z,18.40
2019-06-01T20:42:32.916Z,18.40
2019-06-01T20:45:01.205Z,18.30
2019-06-01T20:47:29.467Z,18.20
2019-06-01T20:49:57.827Z,18.10
2019-06-01T20:52:26.153Z,18.10
2019-06-01T20:54:54.444Z,18.00
2019-06-01T20:57:23.977Z,18.00
2019-06-01T20:59:52.475Z,18.00
2019-06-01T21:02:21.828Z,17.90
2019-06-01T21:04:50.162Z,17.80
2019-06-01T21:07:19.826Z,17.70
2019-06-01T21:09:48.291Z,17.70
2019-06-01T21:12:16.573Z,17.70
2019-06-01T21:14:44.875Z,17.60
2019-06-01T21:17:14.362Z,17.60
2019-06-01T21:19:42.712Z,17.50
2019-06-01T21:22:11.002Z,17.40
2019-06-01T21:24:39.357Z,17.40
2019-06-01T21:27:07.687Z,17.30
2019-06-01T21:29:35.955Z,17.30
2019-06-01T21:32:04.271Z,17.20
2019-06-01T21:34:32.550Z,17.20
2019-06-01T21:37:00.880Z,17.10
2019-06-01T21:39:29.143Z,17.10
2019-06-01T21:41:57.422Z,17.10
2019-06-01T21:44:25.787Z,17.10
2019-06-01T21:46:54.152Z,17.00
2019-06-01T21:49:24.041Z,16.90
2019-06-01T21:51:53.185Z,16.90
2019-06-01T21:54:22.224Z,16.90
2019-06-01T21:56:50.685Z,16.80
2019-06-01T21:59:18.994Z,16.80
2019-06-01T22:01:47.440Z,16.70
2019-06-01T22:04:16.724Z,16.60
2019-06-01T22:06:46.480Z,16.50
2019-06-01T22:09:14.930Z,16.50
2019-06-01T22:11:43.283Z,16.50
2019-06-01T22:14:11.535Z,16.50
2019-06-01T22:16:39.823Z,16.40
2019-06-01T22:19:08.140Z,16.40
2019-06-01T22:21:36.400Z,16.30
2019-06-01T22:24:04.975Z,16.30
2019-06-01T22:26:33.352Z,16.20
2019-06-01T22:29:01.655Z,16.20
2019-06-01T22:31:29.952Z,16.10
2019-06-01T22:33:58.228Z,16.10
2019-06-01T22:36:27.227Z,16.00
2019-06-01T22:38:55.599Z,16.00
2019-06-01T22:41:23.971Z,15.90
2019-06-01T22:43:52.291Z,15.90
2019-06-01T22:46:20.573Z,15.80
2019-06-01T22:48:48.857Z,15.80
2019-06-01T22:51:17.116Z,15.70
2019-06-01T22:53:45.426Z,15.70
2019-06-01T22:56:13.678Z,15.70
2019-06-01T22:58:41.977Z,15.70
2019-06-01T23:01:10.246Z,15.70
2019-06-01T23:03:38.557Z,15.70
2019-06-01T23:06:06.830Z,15.60
2019-06-01T23:08:35.152Z,15.60
2019-06-01T23:11:03.440Z,15.50
2019-06-01T23:13:32.437Z,15.50
2019-06-01T23:16:00.897Z,15.50
2019-06-01T23:18:29.883Z,15.40
2019-06-01T23:20:58.201Z,15.40
2019-06-01T23:23:26.570Z,15.30
2019-06-01T23:25:54.982Z,15.30
2019-06-01T23:28:24.214Z,15.30
2019-06-01T23:30:52.642Z,15.30
2019-06-01T23:33:20.908Z,15.30
2019-06-01T23:35:49.207Z,15.30
2019-06-01T23:38:17.468Z,15.20
2019-06-01T23:40:45.747Z,15.20
2019-06-01T23:43:13.996Z,15.10
2019-06-01T23:45:42.290Z,15.10
2019-06-01T23:48:10.568Z,15.10
2019-06-01T23:50:38.939Z,15.00
2019-06-01T23:53:13.664Z,15.00
2019-06-01T23:55:37.383Z,15.00
2019-06-01T23:58:05.636Z,14.90
